Reydell, Arkansas
Current Conditions -  °F | °C
As of 3:48 AM on Sunday 26 Oct 2014 (Local Time) from KPBF Reporting Station
Moderate Fog Moderate Fog  
Wind Chill: 61°   Ceiling: 500
Heat Index: 61°   Visibility: 0.5mi
Dew Point: 59°   Wind: 0mph
Humidity: 94%   Direction: NA
Pressure: 30.01"   Gusts: NA
Location:  34.16°N, 91.57°W
Report Text: KPBF 260848Z AUTO 00000KT 1/2SM FG VV005 16/15 A3001 RMK AO2 VIS 1/4V1 1/4
Loading
Personal Weather Stations






























Interactive Weather Map
Tropical Storm Tracking
New forecast layout! Learn more

10-Day Weather Forecast

Advertisements
Track Severe Weather on mobile